sensor_id;sensor_type;location;lat;lon;timestamp;P1;durP1;ratioP1;P2;durP2;ratioP2
40595;SDS011;26304;48.794;9.820;2023-07-08T00:01:22;7.25;;;5.78;;
40595;SDS011;26304;48.794;9.820;2023-07-08T00:07:05;6.35;;;5.75;;
40595;SDS011;26304;48.794;9.820;2023-07-08T00:12:56;6.40;;;5.80;;
40595;SDS011;26304;48.794;9.820;2023-07-08T00:18:41;5.97;;;5.47;;
40595;SDS011;26304;48.794;9.820;2023-07-08T00:24:23;5.72;;;5.22;;
40595;SDS011;26304;48.794;9.820;2023-07-08T00:30:19;5.80;;;5.28;;
40595;SDS011;26304;48.794;9.820;2023-07-08T00:36:07;5.32;;;4.75;;
40595;SDS011;26304;48.794;9.820;2023-07-08T00:41:52;5.82;;;5.32;;
40595;SDS011;26304;48.794;9.820;2023-07-08T00:47:35;5.20;;;4.70;;
40595;SDS011;26304;48.794;9.820;2023-07-08T00:53:23;5.70;;;5.20;;
40595;SDS011;26304;48.794;9.820;2023-07-08T00:59:11;6.47;;;5.20;;
40595;SDS011;26304;48.794;9.820;2023-07-08T01:05:05;5.95;;;5.35;;
40595;SDS011;26304;48.794;9.820;2023-07-08T01:10:53;7.43;;;5.35;;
40595;SDS011;26304;48.794;9.820;2023-07-08T01:16:41;5.45;;;4.85;;
40595;SDS011;26304;48.794;9.820;2023-07-08T01:22:25;5.47;;;4.63;;
40595;SDS011;26304;48.794;9.820;2023-07-08T01:28:13;5.38;;;4.88;;
40595;SDS011;26304;48.794;9.820;2023-07-08T01:33:56;5.30;;;4.80;;
40595;SDS011;26304;48.794;9.820;2023-07-08T01:39:40;5.13;;;4.68;;
40595;SDS011;26304;48.794;9.820;2023-07-08T01:45:23;4.88;;;4.35;;
40595;SDS011;26304;48.794;9.820;2023-07-08T01:51:13;5.30;;;4.80;;
40595;SDS011;26304;48.794;9.820;2023-07-08T01:56:57;5.63;;;5.05;;
40595;SDS011;26304;48.794;9.820;2023-07-08T02:02:41;5.35;;;4.85;;
40595;SDS011;26304;48.794;9.820;2023-07-08T02:08:23;5.25;;;4.75;;
40595;SDS011;26304;48.794;9.820;2023-07-08T02:14:07;5.38;;;4.88;;
40595;SDS011;26304;48.794;9.820;2023-07-08T02:19:50;5.40;;;4.85;;
40595;SDS011;26304;48.794;9.820;2023-07-08T02:25:32;6.32;;;4.90;;
40595;SDS011;26304;48.794;9.820;2023-07-08T02:31:16;5.60;;;4.93;;
40595;SDS011;26304;48.794;9.820;2023-07-08T02:36:58;5.43;;;4.93;;
40595;SDS011;26304;48.794;9.820;2023-07-08T02:42:40;5.30;;;4.80;;
40595;SDS011;26304;48.794;9.820;2023-07-08T02:48:24;5.90;;;5.28;;
40595;SDS011;26304;48.794;9.820;2023-07-08T02:54:06;5.85;;;5.25;;
40595;SDS011;26304;48.794;9.820;2023-07-08T02:59:49;5.10;;;4.70;;
40595;SDS011;26304;48.794;9.820;2023-07-08T03:05:33;5.22;;;4.82;;
40595;SDS011;26304;48.794;9.820;2023-07-08T03:11:15;5.60;;;5.10;;
40595;SDS011;26304;48.794;9.820;2023-07-08T03:16:57;7.78;;;5.38;;
40595;SDS011;26304;48.794;9.820;2023-07-08T03:22:41;5.85;;;5.25;;
40595;SDS011;26304;48.794;9.820;2023-07-08T03:28:23;6.25;;;5.32;;
40595;SDS011;26304;48.794;9.820;2023-07-08T03:34:07;7.55;;;6.03;;
40595;SDS011;26304;48.794;9.820;2023-07-08T03:39:51;5.65;;;5.15;;
40595;SDS011;26304;48.794;9.820;2023-07-08T03:45:33;6.40;;;5.00;;
40595;SDS011;26304;48.794;9.820;2023-07-08T03:51:17;5.70;;;5.20;;
40595;SDS011;26304;48.794;9.820;2023-07-08T03:57:04;7.10;;;5.53;;
40595;SDS011;26304;48.794;9.820;2023-07-08T04:02:47;5.47;;;4.97;;
40595;SDS011;26304;48.794;9.820;2023-07-08T04:08:30;6.97;;;6.28;;
40595;SDS011;26304;48.794;9.820;2023-07-08T04:14:13;5.82;;;5.32;;
40595;SDS011;26304;48.794;9.820;2023-07-08T04:19:56;5.82;;;5.32;;
40595;SDS011;26304;48.794;9.820;2023-07-08T04:25:38;6.30;;;5.70;;
40595;SDS011;26304;48.794;9.820;2023-07-08T04:31:22;6.32;;;5.30;;
40595;SDS011;26304;48.794;9.820;2023-07-08T04:37:04;6.82;;;5.80;;
40595;SDS011;26304;48.794;9.820;2023-07-08T04:42:47;6.30;;;5.63;;
40595;SDS011;26304;48.794;9.820;2023-07-08T04:48:34;6.45;;;5.85;;
40595;SDS011;26304;48.794;9.820;2023-07-08T04:54:16;6.77;;;6.17;;
40595;SDS011;26304;48.794;9.820;2023-07-08T04:59:58;6.32;;;5.72;;
40595;SDS011;26304;48.794;9.820;2023-07-08T05:05:42;5.78;;;5.28;;
40595;SDS011;26304;48.794;9.820;2023-07-08T05:11:24;6.32;;;5.72;;
40595;SDS011;26304;48.794;9.820;2023-07-08T05:17:07;7.50;;;6.28;;
40595;SDS011;26304;48.794;9.820;2023-07-08T05:22:51;6.20;;;5.60;;
40595;SDS011;26304;48.794;9.820;2023-07-08T05:28:33;6.00;;;5.40;;
40595;SDS011;26304;48.794;9.820;2023-07-08T05:34:16;5.88;;;5.28;;
40595;SDS011;26304;48.794;9.820;2023-07-08T05:39:59;5.82;;;5.15;;
40595;SDS011;26304;48.794;9.820;2023-07-08T05:45:45;6.10;;;5.55;;
40595;SDS011;26304;48.794;9.820;2023-07-08T05:51:27;6.13;;;5.53;;
40595;SDS011;26304;48.794;9.820;2023-07-08T05:57:11;6.38;;;5.75;;
40595;SDS011;26304;48.794;9.820;2023-07-08T06:02:54;5.90;;;5.30;;
40595;SDS011;26304;48.794;9.820;2023-07-08T06:08:36;7.18;;;5.53;;
40595;SDS011;26304;48.794;9.820;2023-07-08T06:14:20;5.93;;;5.40;;
40595;SDS011;26304;48.794;9.820;2023-07-08T06:20:03;5.32;;;4.88;;
40595;SDS011;26304;48.794;9.820;2023-07-08T06:25:45;5.43;;;4.70;;
40595;SDS011;26304;48.794;9.820;2023-07-08T06:31:29;4.53;;;4.10;;
40595;SDS011;26304;48.794;9.820;2023-07-08T06:37:12;4.30;;;4.00;;
40595;SDS011;26304;48.794;9.820;2023-07-08T06:42:54;4.75;;;4.32;;
40595;SDS011;26304;48.794;9.820;2023-07-08T06:48:38;5.15;;;4.05;;
40595;SDS011;26304;48.794;9.820;2023-07-08T06:54:20;4.35;;;3.97;;
40595;SDS011;26304;48.794;9.820;2023-07-08T07:00:04;5.30;;;4.55;;
40595;SDS011;26304;48.794;9.820;2023-07-08T07:05:49;4.75;;;4.35;;
40595;SDS011;26304;48.794;9.820;2023-07-08T07:11:31;4.13;;;3.83;;
40595;SDS011;26304;48.794;9.820;2023-07-08T07:17:14;4.28;;;3.85;;
40595;SDS011;26304;48.794;9.820;2023-07-08T07:22:57;5.82;;;4.05;;
40595;SDS011;26304;48.794;9.820;2023-07-08T07:28:40;4.38;;;3.97;;
40595;SDS011;26304;48.794;9.820;2023-07-08T07:34:23;4.30;;;3.90;;
40595;SDS011;26304;48.794;9.820;2023-07-08T07:40:07;5.18;;;4.45;;
40595;SDS011;26304;48.794;9.820;2023-07-08T07:45:53;4.40;;;4.00;;
40595;SDS011;26304;48.794;9.820;2023-07-08T07:51:35;4.57;;;3.80;;
40595;SDS011;26304;48.794;9.820;2023-07-08T07:57:19;6.00;;;4.13;;
40595;SDS011;26304;48.794;9.820;2023-07-08T08:03:05;4.35;;;3.70;;
40595;SDS011;26304;48.794;9.820;2023-07-08T08:08:47;4.18;;;3.75;;
40595;SDS011;26304;48.794;9.820;2023-07-08T08:20:15;4.50;;;4.10;;
40595;SDS011;26304;48.794;9.820;2023-07-08T08:25:58;5.63;;;4.13;;
40595;SDS011;26304;48.794;9.820;2023-07-08T08:31:42;4.65;;;3.95;;
40595;SDS011;26304;48.794;9.820;2023-07-08T08:37:24;4.53;;;4.13;;
40595;SDS011;26304;48.794;9.820;2023-07-08T08:43:09;4.13;;;3.72;;
40595;SDS011;26304;48.794;9.820;2023-07-08T08:48:57;4.15;;;3.75;;
40595;SDS011;26304;48.794;9.820;2023-07-08T08:54:46;4.50;;;4.10;;
40595;SDS011;26304;48.794;9.820;2023-07-08T09:00:35;4.10;;;3.80;;
40595;SDS011;26304;48.794;9.820;2023-07-08T09:06:27;4.53;;;4.03;;
40595;SDS011;26304;48.794;9.820;2023-07-08T09:12:14;4.93;;;4.25;;
40595;SDS011;26304;48.794;9.820;2023-07-08T09:18:03;4.07;;;3.75;;
40595;SDS011;26304;48.794;9.820;2023-07-08T09:23:56;4.32;;;3.92;;
40595;SDS011;26304;48.794;9.820;2023-07-08T09:29:45;3.40;;;3.10;;
40595;SDS011;26304;48.794;9.820;2023-07-08T09:35:29;3.22;;;2.90;;
40595;SDS011;26304;48.794;9.820;2023-07-08T09:41:32;3.78;;;3.28;;
40595;SDS011;26304;48.794;9.820;2023-07-08T09:47:20;6.55;;;3.13;;
40595;SDS011;26304;48.794;9.820;2023-07-08T09:53:04;5.60;;;3.55;;
40595;SDS011;26304;48.794;9.820;2023-07-08T09:58:47;5.97;;;3.83;;
40595;SDS011;26304;48.794;9.820;2023-07-08T10:04:30;5.57;;;4.20;;
40595;SDS011;26304;48.794;9.820;2023-07-08T10:10:15;3.80;;;3.40;;
40595;SDS011;26304;48.794;9.820;2023-07-08T10:16:02;3.72;;;3.30;;
40595;SDS011;26304;48.794;9.820;2023-07-08T10:22:08;4.72;;;3.40;;
40595;SDS011;26304;48.794;9.820;2023-07-08T10:28:07;9.25;;;3.42;;
40595;SDS011;26304;48.794;9.820;2023-07-08T10:34:10;6.15;;;3.60;;
40595;SDS011;26304;48.794;9.820;2023-07-08T10:40:10;4.50;;;3.22;;
40595;SDS011;26304;48.794;9.820;2023-07-08T10:46:16;5.30;;;3.33;;
40595;SDS011;26304;48.794;9.820;2023-07-08T10:52:11;7.25;;;3.50;;
40595;SDS011;26304;48.794;9.820;2023-07-08T10:58:12;7.13;;;3.63;;
40595;SDS011;26304;48.794;9.820;2023-07-08T11:04:13;6.22;;;3.35;;
40595;SDS011;26304;48.794;9.820;2023-07-08T11:10:14;5.00;;;3.83;;
40595;SDS011;26304;48.794;9.820;2023-07-08T11:16:01;5.57;;;3.03;;
40595;SDS011;26304;48.794;9.820;2023-07-08T11:21:47;6.43;;;3.70;;
40595;SDS011;26304;48.794;9.820;2023-07-08T11:27:35;5.07;;;3.45;;
40595;SDS011;26304;48.794;9.820;2023-07-08T11:33:21;3.25;;;2.92;;
40595;SDS011;26304;48.794;9.820;2023-07-08T11:45:20;5.90;;;3.42;;
40595;SDS011;26304;48.794;9.820;2023-07-08T11:51:07;4.55;;;3.00;;
40595;SDS011;26304;48.794;9.820;2023-07-08T11:56:57;5.55;;;3.67;;
40595;SDS011;26304;48.794;9.820;2023-07-08T12:02:49;4.60;;;3.35;;
40595;SDS011;26304;48.794;9.820;2023-07-08T12:08:36;5.25;;;3.00;;
40595;SDS011;26304;48.794;9.820;2023-07-08T12:14:21;7.20;;;3.55;;
40595;SDS011;26304;48.794;9.820;2023-07-08T12:20:11;4.18;;;2.53;;
40595;SDS011;26304;48.794;9.820;2023-07-08T12:26:00;5.07;;;3.33;;
40595;SDS011;26304;48.794;9.820;2023-07-08T12:31:43;5.80;;;2.80;;
40595;SDS011;26304;48.794;9.820;2023-07-08T12:37:27;4.53;;;3.17;;
40595;SDS011;26304;48.794;9.820;2023-07-08T12:43:10;5.53;;;2.95;;
40595;SDS011;26304;48.794;9.820;2023-07-08T12:48:53;3.72;;;2.67;;
40595;SDS011;26304;48.794;9.820;2023-07-08T12:54:37;4.35;;;2.70;;
40595;SDS011;26304;48.794;9.820;2023-07-08T13:00:21;9.32;;;3.50;;
40595;SDS011;26304;48.794;9.820;2023-07-08T13:06:07;5.03;;;2.78;;
40595;SDS011;26304;48.794;9.820;2023-07-08T13:11:54;4.53;;;2.40;;
40595;SDS011;26304;48.794;9.820;2023-07-08T13:17:38;3.60;;;2.33;;
40595;SDS011;26304;48.794;9.820;2023-07-08T13:23:22;3.08;;;2.78;;
40595;SDS011;26304;48.794;9.820;2023-07-08T13:29:09;2.92;;;2.60;;
40595;SDS011;26304;48.794;9.820;2023-07-08T13:34:55;4.82;;;2.90;;
40595;SDS011;26304;48.794;9.820;2023-07-08T13:40:40;2.65;;;2.42;;
40595;SDS011;26304;48.794;9.820;2023-07-08T13:46:29;2.88;;;2.20;;
40595;SDS011;26304;48.794;9.820;2023-07-08T13:52:15;3.15;;;2.38;;
40595;SDS011;26304;48.794;9.820;2023-07-08T13:58:01;3.05;;;2.38;;
40595;SDS011;26304;48.794;9.820;2023-07-08T14:03:45;5.45;;;2.78;;
40595;SDS011;26304;48.794;9.820;2023-07-08T14:09:31;4.10;;;2.40;;
40595;SDS011;26304;48.794;9.820;2023-07-08T14:15:13;6.18;;;2.10;;
40595;SDS011;26304;48.794;9.820;2023-07-08T14:21:00;2.67;;;1.88;;
40595;SDS011;26304;48.794;9.820;2023-07-08T14:26:46;4.32;;;2.45;;
40595;SDS011;26304;48.794;9.820;2023-07-08T14:32:30;4.55;;;2.38;;
40595;SDS011;26304;48.794;9.820;2023-07-08T14:38:15;3.38;;;2.30;;
40595;SDS011;26304;48.794;9.820;2023-07-08T14:43:57;2.80;;;2.42;;
40595;SDS011;26304;48.794;9.820;2023-07-08T14:49:40;4.55;;;2.40;;
40595;SDS011;26304;48.794;9.820;2023-07-08T14:55:23;2.45;;;1.92;;
40595;SDS011;26304;48.794;9.820;2023-07-08T15:01:17;2.45;;;1.80;;
40595;SDS011;26304;48.794;9.820;2023-07-08T15:07:01;3.15;;;2.38;;
40595;SDS011;26304;48.794;9.820;2023-07-08T15:12:45;2.30;;;2.03;;
40595;SDS011;26304;48.794;9.820;2023-07-08T15:18:28;5.18;;;2.10;;
40595;SDS011;26304;48.794;9.820;2023-07-08T15:24:12;2.90;;;1.88;;
40595;SDS011;26304;48.794;9.820;2023-07-08T15:29:57;2.28;;;2.05;;
40595;SDS011;26304;48.794;9.820;2023-07-08T15:35:39;2.70;;;2.25;;
40595;SDS011;26304;48.794;9.820;2023-07-08T15:41:23;3.33;;;1.85;;
40595;SDS011;26304;48.794;9.820;2023-07-08T15:47:10;3.30;;;1.98;;
40595;SDS011;26304;48.794;9.820;2023-07-08T15:52:55;2.05;;;1.80;;
40595;SDS011;26304;48.794;9.820;2023-07-08T15:58:37;2.30;;;2.10;;
40595;SDS011;26304;48.794;9.820;2023-07-08T16:04:23;2.20;;;2.00;;
40595;SDS011;26304;48.794;9.820;2023-07-08T16:10:08;2.15;;;1.85;;
40595;SDS011;26304;48.794;9.820;2023-07-08T16:15:51;3.05;;;1.77;;
40595;SDS011;26304;48.794;9.820;2023-07-08T16:21:36;1.88;;;1.73;;
40595;SDS011;26304;48.794;9.820;2023-07-08T16:27:19;2.38;;;2.08;;
40595;SDS011;26304;48.794;9.820;2023-07-08T16:33:01;3.60;;;1.80;;
40595;SDS011;26304;48.794;9.820;2023-07-08T16:38:45;1.90;;;1.60;;
40595;SDS011;26304;48.794;9.820;2023-07-08T16:44:28;1.92;;;1.70;;
40595;SDS011;26304;48.794;9.820;2023-07-08T16:50:10;1.73;;;1.63;;
40595;SDS011;26304;48.794;9.820;2023-07-08T16:55:55;2.70;;;2.08;;
40595;SDS011;26304;48.794;9.820;2023-07-08T17:01:37;2.17;;;1.98;;
40595;SDS011;26304;48.794;9.820;2023-07-08T17:07:20;2.70;;;2.00;;
40595;SDS011;26304;48.794;9.820;2023-07-08T17:13:04;4.68;;;1.80;;
40595;SDS011;26304;48.794;9.820;2023-07-08T17:18:47;2.72;;;1.92;;
40595;SDS011;26304;48.794;9.820;2023-07-08T17:24:35;8.23;;;2.05;;
40595;SDS011;26304;48.794;9.820;2023-07-08T17:30:19;5.70;;;2.35;;
40595;SDS011;26304;48.794;9.820;2023-07-08T17:36:07;5.40;;;2.10;;
40595;SDS011;26304;48.794;9.820;2023-07-08T17:41:51;5.00;;;2.00;;
40595;SDS011;26304;48.794;9.820;2023-07-08T17:47:34;2.50;;;2.30;;
40595;SDS011;26304;48.794;9.820;2023-07-08T17:53:17;3.50;;;1.85;;
40595;SDS011;26304;48.794;9.820;2023-07-08T17:58:59;3.53;;;2.03;;
40595;SDS011;26304;48.794;9.820;2023-07-08T18:04:45;4.55;;;2.20;;
40595;SDS011;26304;48.794;9.820;2023-07-08T18:10:28;2.72;;;2.47;;
40595;SDS011;26304;48.794;9.820;2023-07-08T18:16:11;3.35;;;2.20;;
40595;SDS011;26304;48.794;9.820;2023-07-08T18:22:01;2.40;;;2.00;;
40595;SDS011;26304;48.794;9.820;2023-07-08T18:27:44;2.22;;;1.90;;
40595;SDS011;26304;48.794;9.820;2023-07-08T18:33:27;3.45;;;2.22;;
40595;SDS011;26304;48.794;9.820;2023-07-08T18:39:11;2.28;;;2.00;;
40595;SDS011;26304;48.794;9.820;2023-07-08T18:44:55;4.55;;;2.10;;
40595;SDS011;26304;48.794;9.820;2023-07-08T18:50:38;2.42;;;2.15;;
40595;SDS011;26304;48.794;9.820;2023-07-08T18:56:22;2.13;;;1.95;;
40595;SDS011;26304;48.794;9.820;2023-07-08T19:02:06;2.28;;;2.08;;
40595;SDS011;26304;48.794;9.820;2023-07-08T19:08:11;8.95;;;3.92;;
40595;SDS011;26304;48.794;9.820;2023-07-08T19:13:55;17.90;;;5.93;;
40595;SDS011;26304;48.794;9.820;2023-07-08T19:19:38;21.33;;;7.07;;
40595;SDS011;26304;48.794;9.820;2023-07-08T19:25:21;15.55;;;6.18;;
40595;SDS011;26304;48.794;9.820;2023-07-08T19:31:07;14.27;;;4.57;;
40595;SDS011;26304;48.794;9.820;2023-07-08T19:37:00;6.35;;;4.13;;
40595;SDS011;26304;48.794;9.820;2023-07-08T19:42:42;6.05;;;3.30;;
40595;SDS011;26304;48.794;9.820;2023-07-08T19:48:28;2.83;;;2.13;;
40595;SDS011;26304;48.794;9.820;2023-07-08T19:54:10;4.80;;;3.42;;
40595;SDS011;26304;48.794;9.820;2023-07-08T19:59:53;3.38;;;3.05;;
40595;SDS011;26304;48.794;9.820;2023-07-08T20:05:37;5.13;;;3.30;;
40595;SDS011;26304;48.794;9.820;2023-07-08T20:11:20;6.40;;;3.30;;
40595;SDS011;26304;48.794;9.820;2023-07-08T20:17:02;4.05;;;2.85;;
40595;SDS011;26304;48.794;9.820;2023-07-08T20:22:47;3.13;;;2.40;;
40595;SDS011;26304;48.794;9.820;2023-07-08T20:28:30;2.85;;;2.55;;
40595;SDS011;26304;48.794;9.820;2023-07-08T20:34:14;2.50;;;2.30;;
40595;SDS011;26304;48.794;9.820;2023-07-08T20:39:59;3.25;;;1.98;;
40595;SDS011;26304;48.794;9.820;2023-07-08T20:45:42;2.53;;;2.33;;
40595;SDS011;26304;48.794;9.820;2023-07-08T20:51:29;3.72;;;2.25;;
40595;SDS011;26304;48.794;9.820;2023-07-08T20:57:13;3.70;;;2.60;;
40595;SDS011;26304;48.794;9.820;2023-07-08T21:02:58;3.25;;;2.90;;
40595;SDS011;26304;48.794;9.820;2023-07-08T21:08:40;4.18;;;3.78;;
40595;SDS011;26304;48.794;9.820;2023-07-08T21:14:24;3.58;;;3.28;;
40595;SDS011;26304;48.794;9.820;2023-07-08T21:20:13;3.60;;;3.30;;
40595;SDS011;26304;48.794;9.820;2023-07-08T21:25:57;5.53;;;4.05;;
40595;SDS011;26304;48.794;9.820;2023-07-08T21:31:41;4.80;;;4.00;;
40595;SDS011;26304;48.794;9.820;2023-07-08T21:37:23;4.55;;;3.78;;
40595;SDS011;26304;48.794;9.820;2023-07-08T21:43:10;4.20;;;3.47;;
40595;SDS011;26304;48.794;9.820;2023-07-08T21:48:55;6.93;;;6.18;;
40595;SDS011;26304;48.794;9.820;2023-07-08T21:54:38;5.30;;;4.55;;
40595;SDS011;26304;48.794;9.820;2023-07-08T22:00:20;4.07;;;3.78;;
40595;SDS011;26304;48.794;9.820;2023-07-08T22:06:04;3.78;;;3.50;;
40595;SDS011;26304;48.794;9.820;2023-07-08T22:11:46;4.72;;;4.20;;
40595;SDS011;26304;48.794;9.820;2023-07-08T22:17:29;3.75;;;3.30;;
40595;SDS011;26304;48.794;9.820;2023-07-08T22:23:12;3.50;;;3.15;;
40595;SDS011;26304;48.794;9.820;2023-07-08T22:28:55;5.13;;;2.80;;
40595;SDS011;26304;48.794;9.820;2023-07-08T22:34:37;4.95;;;3.00;;
40595;SDS011;26304;48.794;9.820;2023-07-08T22:40:21;5.20;;;3.22;;
40595;SDS011;26304;48.794;9.820;2023-07-08T22:46:04;3.88;;;2.67;;
40595;SDS011;26304;48.794;9.820;2023-07-08T22:51:46;2.80;;;2.60;;
40595;SDS011;26304;48.794;9.820;2023-07-08T22:57:31;2.90;;;2.50;;
40595;SDS011;26304;48.794;9.820;2023-07-08T23:03:14;4.20;;;2.78;;
40595;SDS011;26304;48.794;9.820;2023-07-08T23:08:56;2.70;;;2.50;;
40595;SDS011;26304;48.794;9.820;2023-07-08T23:14:40;3.17;;;2.53;;
40595;SDS011;26304;48.794;9.820;2023-07-08T23:20:22;2.78;;;2.58;;
40595;SDS011;26304;48.794;9.820;2023-07-08T23:26:08;3.00;;;2.80;;
40595;SDS011;26304;48.794;9.820;2023-07-08T23:31:55;4.18;;;2.80;;
40595;SDS011;26304;48.794;9.820;2023-07-08T23:37:39;2.72;;;2.38;;
40595;SDS011;26304;48.794;9.820;2023-07-08T23:43:22;3.63;;;2.60;;
40595;SDS011;26304;48.794;9.820;2023-07-08T23:49:09;3.05;;;2.75;;
40595;SDS011;26304;48.794;9.820;2023-07-08T23:55:00;4.45;;;2.78;;
